aviador You're here:

KEPH Decoded Metar

EPHRATA in WA, USA
Report Time2018-02-25 14:53:00
UTC Time2018-02-25 15:14:35
Flight Rules vfr VFR
Wind220° at 09 kt
W.Decomp.*RWY 21: 9.0 kt HW 0.9 kt LCW
RWY 22: 8.7 kt HW 2.5 kt LCW
RWY 29: 0.6 kt HW 9 kt LCW
W.Rank220° ranks 10
Current wind is above 220° avg. (8.4)
Visibility9999 m
Phenomena:N/A
Clouds:N/A
Expected CloudBase > 1,600 ft AGL from Temp-Dew spread
CeilingNone
Temp00°C (ISA -13)
Dew Point-4°C (75% RH)
AAT-5.7°C
QNH1007 hPa
Density Alt7 ft
Elevation1,257 ft
Report Wrong Elevation
Raw Report
KEPH 251453Z AUTO 22009KT 10SM CLR 00/M04 A2974 RMK AO2 SLP084
T00001044 58030=

Extra information for KEPH:More info

Metar Taf Metar & Taf Last 4 Metars F.Rules Stats Wind Profile Meteogram Temp Stats Airport Information Weather charts Add Link Nearby VenuesMetar ALERT Operation Metar Decoded Social comments

AIRNAV info for KEPH